createdAt,value
2023-01-17T00:05:05.039Z,2.30
2023-01-17T00:07:50.838Z,6.72
2023-01-17T00:12:56.142Z,2.42
2023-01-17T00:15:23.809Z,2.03
2023-01-17T00:17:51.209Z,3.05
2023-01-17T00:20:41.249Z,2.97
2023-01-17T00:23:30.599Z,2.50
2023-01-17T00:26:03.232Z,2.17
2023-01-17T00:28:40.535Z,2.20
2023-01-17T00:31:08.837Z,3.03
2023-01-17T00:33:36.057Z,2.03
2023-01-17T00:36:04.123Z,3.13
2023-01-17T00:38:33.381Z,3.67
2023-01-17T00:41:06.158Z,2.17
2023-01-17T00:43:51.507Z,2.30
2023-01-17T00:46:37.698Z,2.40
2023-01-17T00:49:24.171Z,3.50
2023-01-17T00:52:09.999Z,2.35
2023-01-17T00:54:55.294Z,2.90
2023-01-17T00:57:40.408Z,2.45
2023-01-17T01:00:26.550Z,2.92
2023-01-17T01:03:11.663Z,2.65
2023-01-17T01:05:57.204Z,4.32
2023-01-17T01:08:45.146Z,3.08
2023-01-17T01:11:35.285Z,3.42
2023-01-17T01:17:06.036Z,3.30
2023-01-17T01:19:52.156Z,2.95
2023-01-17T01:22:37.144Z,3.97
2023-01-17T01:25:22.519Z,1.80
2023-01-17T01:28:07.387Z,3.58
2023-01-17T01:30:52.683Z,3.78
2023-01-17T01:35:52.812Z,1.70
2023-01-17T01:38:22.652Z,4.30
2023-01-17T01:40:55.003Z,2.35
2023-01-17T01:43:50.393Z,2.35
2023-01-17T01:46:29.993Z,3.05
2023-01-17T01:49:02.101Z,2.28
2023-01-17T01:51:35.351Z,2.90
2023-01-17T01:54:07.482Z,4.57
2023-01-17T01:56:34.217Z,2.72
2023-01-17T01:59:04.133Z,2.30
2023-01-17T02:01:31.702Z,3.13
2023-01-17T02:03:58.756Z,2.63
2023-01-17T02:06:30.860Z,2.45
2023-01-17T02:09:01.784Z,2.60
2023-01-17T02:11:28.298Z,2.40
2023-01-17T02:13:55.076Z,3.10
2023-01-17T02:16:44.340Z,2.55
2023-01-17T02:19:48.199Z,3.88
2023-01-17T02:22:36.491Z,3.00
2023-01-17T02:25:23.771Z,2.80
2023-01-17T02:28:05.022Z,4.75
2023-01-17T02:30:39.440Z,2.28
2023-01-17T02:33:24.630Z,2.58
2023-01-17T02:36:10.183Z,3.97
2023-01-17T02:39:13.801Z,3.22
2023-01-17T02:41:46.115Z,5.25
2023-01-17T02:46:50.607Z,2.63
2023-01-17T02:55:13.284Z,2.65
2023-01-17T03:01:06.384Z,3.45
2023-01-17T03:03:52.975Z,3.40
2023-01-17T03:06:40.943Z,3.28
2023-01-17T03:09:09.421Z,3.45
2023-01-17T03:11:36.310Z,2.47
2023-01-17T03:14:03.472Z,2.70
2023-01-17T03:16:33.499Z,3.65
2023-01-17T03:19:00.569Z,4.75
2023-01-17T03:21:27.568Z,3.25
2023-01-17T03:23:54.525Z,3.15
2023-01-17T03:28:51.359Z,4.90
2023-01-17T03:33:47.682Z,4.22
2023-01-17T03:38:43.183Z,3.88
2023-01-17T03:41:10.484Z,3.45
2023-01-17T03:43:38.092Z,3.60
2023-01-17T03:48:46.789Z,2.50
2023-01-17T03:51:13.536Z,3.95
2023-01-17T03:53:40.630Z,3.30
2023-01-17T03:56:10.332Z,3.13
2023-01-17T03:58:37.208Z,2.80
2023-01-17T04:01:04.121Z,5.38
2023-01-17T04:03:31.374Z,4.07
2023-01-17T04:08:24.980Z,3.92
2023-01-17T04:10:51.699Z,4.55
2023-01-17T04:15:50.937Z,2.72
2023-01-17T04:18:20.195Z,2.85
2023-01-17T04:20:47.258Z,2.72
2023-01-17T04:28:07.452Z,2.92
2023-01-17T04:30:34.421Z,5.25
2023-01-17T04:33:01.367Z,4.88
2023-01-17T04:35:31.130Z,3.05
2023-01-17T04:37:57.956Z,3.85
2023-01-17T04:40:25.146Z,3.28
2023-01-17T04:42:52.291Z,5.07
2023-01-17T04:45:19.403Z,3.53
2023-01-17T04:47:46.216Z,3.92
2023-01-17T04:52:40.643Z,3.17
2023-01-17T04:55:07.998Z,4.13
2023-01-17T04:57:34.844Z,5.13
2023-01-17T05:00:01.727Z,4.05
2023-01-17T05:02:28.573Z,5.75
2023-01-17T05:04:55.346Z,4.93
2023-01-17T05:07:21.968Z,4.35
2023-01-17T05:09:48.737Z,4.38
2023-01-17T05:14:41.992Z,5.60
2023-01-17T05:17:11.225Z,5.88
2023-01-17T05:19:38.185Z,5.18
2023-01-17T05:24:45.815Z,4.63
2023-01-17T05:29:40.646Z,6.10
2023-01-17T05:32:07.682Z,5.75
2023-01-17T05:34:35.218Z,5.72
2023-01-17T05:37:02.280Z,4.82
2023-01-17T05:39:31.155Z,4.25
2023-01-17T05:41:58.514Z,4.82
2023-01-17T05:44:27.548Z,5.60
2023-01-17T05:46:54.613Z,5.47
2023-01-17T05:49:21.359Z,6.30
2023-01-17T05:51:48.250Z,6.40
2023-01-17T05:56:41.768Z,6.68
2023-01-17T05:59:08.566Z,6.50
2023-01-17T06:01:35.388Z,5.45
2023-01-17T06:04:02.145Z,5.80
2023-01-17T06:06:30.093Z,6.60
2023-01-17T06:08:57.782Z,5.75
2023-01-17T06:11:24.483Z,6.45
2023-01-17T06:13:51.393Z,5.30
2023-01-17T06:16:26.861Z,4.72
2023-01-17T06:18:53.869Z,6.03
2023-01-17T06:21:22.770Z,5.13
2023-01-17T06:23:49.482Z,5.10
2023-01-17T06:28:43.228Z,6.57
2023-01-17T06:31:10.216Z,4.97
2023-01-17T06:33:39.085Z,4.57
2023-01-17T06:36:06.244Z,5.35
2023-01-17T06:38:33.377Z,4.80
2023-01-17T06:41:04.675Z,4.20
2023-01-17T06:46:04.692Z,4.50
2023-01-17T06:48:31.323Z,11.00
2023-01-17T06:50:58.248Z,16.63
2023-01-17T06:53:28.108Z,23.52
2023-01-17T06:55:57.825Z,9.80
2023-01-17T06:58:24.740Z,10.68
2023-01-17T07:00:51.987Z,7.72
2023-01-17T07:03:24.411Z,6.05
2023-01-17T07:05:51.664Z,6.55
2023-01-17T07:08:20.451Z,5.95
2023-01-17T07:10:48.078Z,5.18
2023-01-17T07:15:42.156Z,6.00
2023-01-17T07:18:08.857Z,5.68
2023-01-17T07:20:35.402Z,5.35
2023-01-17T07:23:02.000Z,5.15
2023-01-17T07:25:28.611Z,5.50
2023-01-17T07:27:57.574Z,5.07
2023-01-17T07:30:24.936Z,5.50
2023-01-17T07:32:55.242Z,4.72
2023-01-17T07:35:23.148Z,5.00
2023-01-17T07:37:50.639Z,5.32
2023-01-17T07:40:18.664Z,4.80
2023-01-17T07:42:45.770Z,5.38
2023-01-17T07:47:40.836Z,4.95
2023-01-17T07:50:08.948Z,4.03
2023-01-17T07:52:35.793Z,4.82
2023-01-17T07:55:05.331Z,4.07
2023-01-17T07:57:35.338Z,5.53
2023-01-17T08:00:05.435Z,8.73
2023-01-17T08:02:32.070Z,5.57
2023-01-17T08:05:05.767Z,6.68
2023-01-17T08:07:32.904Z,4.53
2023-01-17T08:10:07.276Z,6.15
2023-01-17T08:12:36.005Z,6.00
2023-01-17T08:15:15.563Z,5.75
2023-01-17T08:17:47.095Z,5.18
2023-01-17T08:22:51.360Z,5.18
2023-01-17T08:25:24.077Z,8.45
2023-01-17T08:27:52.177Z,6.78
2023-01-17T08:30:21.729Z,9.60
2023-01-17T08:32:48.642Z,8.07
2023-01-17T08:37:45.588Z,7.80
2023-01-17T08:40:20.669Z,6.80
2023-01-17T08:42:57.779Z,5.68
2023-01-17T08:45:24.931Z,6.07
2023-01-17T08:47:52.408Z,7.30
2023-01-17T08:50:23.424Z,8.13
2023-01-17T08:52:59.085Z,8.95
2023-01-17T08:55:29.973Z,9.10
2023-01-17T08:57:59.101Z,7.28
2023-01-17T09:00:27.251Z,8.90
2023-01-17T09:02:54.253Z,7.97
2023-01-17T09:05:21.184Z,6.03
2023-01-17T09:07:48.056Z,7.30
2023-01-17T09:12:41.771Z,6.95
2023-01-17T09:15:09.280Z,5.45
2023-01-17T09:17:38.977Z,4.68
2023-01-17T09:20:06.566Z,6.03
2023-01-17T09:22:39.188Z,6.95
2023-01-17T09:25:09.698Z,4.43
2023-01-17T09:27:36.911Z,4.75
2023-01-17T09:30:07.943Z,5.63
2023-01-17T09:32:34.999Z,5.20
2023-01-17T09:35:07.534Z,5.60
2023-01-17T09:37:35.883Z,5.43
2023-01-17T09:40:05.626Z,6.50
2023-01-17T09:42:41.217Z,4.47
2023-01-17T09:45:18.776Z,5.63
2023-01-17T09:47:52.667Z,4.15
2023-01-17T09:50:34.404Z,4.25
2023-01-17T09:53:23.389Z,6.10
2023-01-17T09:56:09.360Z,3.97
2023-01-17T09:59:33.184Z,5.80
2023-01-17T10:02:32.158Z,4.70
2023-01-17T10:06:03.913Z,5.18
2023-01-17T10:09:00.955Z,5.28
2023-01-17T10:14:37.307Z,5.22
2023-01-17T10:17:54.552Z,4.70
2023-01-17T10:20:47.168Z,4.45
2023-01-17T10:23:40.675Z,5.25
2023-01-17T10:26:35.052Z,4.22
2023-01-17T10:32:02.436Z,4.95
2023-01-17T10:34:46.783Z,6.63
2023-01-17T10:37:34.007Z,4.78
2023-01-17T10:40:28.907Z,7.30
2023-01-17T10:43:03.366Z,4.63
2023-01-17T10:45:55.373Z,4.35
2023-01-17T10:48:36.565Z,9.27
2023-01-17T10:51:10.651Z,5.28
2023-01-17T10:54:01.788Z,7.03
2023-01-17T10:56:39.790Z,5.45
2023-01-17T10:59:30.658Z,5.55
2023-01-17T11:04:36.799Z,6.03
2023-01-17T11:07:27.445Z,4.45
2023-01-17T11:09:58.862Z,5.47
2023-01-17T11:12:47.588Z,4.28
2023-01-17T11:15:17.835Z,4.20
2023-01-17T11:18:01.069Z,7.05
2023-01-17T11:20:39.265Z,4.20
2023-01-17T11:23:21.729Z,5.90
2023-01-17T11:26:02.748Z,4.00
2023-01-17T11:28:34.866Z,4.95
2023-01-17T11:31:35.510Z,5.00
2023-01-17T11:34:28.248Z,5.30
2023-01-17T11:37:19.666Z,4.22
2023-01-17T11:39:50.401Z,8.10
2023-01-17T11:42:38.547Z,4.07
2023-01-17T11:45:29.242Z,7.15
2023-01-17T11:50:44.237Z,6.03
2023-01-17T11:53:22.341Z,4.70
2023-01-17T11:58:43.466Z,4.82
2023-01-17T12:01:26.174Z,4.68
2023-01-17T12:04:02.323Z,4.00
2023-01-17T12:06:56.377Z,3.75
2023-01-17T12:10:01.944Z,6.78
2023-01-17T12:12:56.044Z,5.22
2023-01-17T12:15:31.888Z,9.48
2023-01-17T12:18:28.841Z,4.60
2023-01-17T12:23:49.195Z,4.75
2023-01-17T12:26:29.742Z,4.65
2023-01-17T12:29:03.378Z,4.88
2023-01-17T12:31:35.138Z,5.57
2023-01-17T12:34:24.948Z,6.30
2023-01-17T12:37:06.446Z,4.18
2023-01-17T12:39:44.748Z,5.70
2023-01-17T12:42:24.565Z,3.55
2023-01-17T12:45:04.525Z,3.85
2023-01-17T12:47:36.338Z,4.70
2023-01-17T12:50:24.802Z,3.08
2023-01-17T12:53:05.183Z,3.20
2023-01-17T12:55:48.454Z,7.72
2023-01-17T12:58:20.894Z,7.03
2023-01-17T13:00:54.509Z,4.05
2023-01-17T13:03:47.435Z,5.22
2023-01-17T13:06:58.853Z,3.95
2023-01-17T13:09:31.138Z,4.32
2023-01-17T13:12:09.988Z,3.92
2023-01-17T13:14:36.573Z,3.60
2023-01-17T13:17:23.297Z,4.18
2023-01-17T13:20:08.465Z,5.03
2023-01-17T13:22:37.451Z,4.78
2023-01-17T13:25:13.175Z,4.03
2023-01-17T13:28:08.763Z,4.65
2023-01-17T13:31:13.635Z,4.75
2023-01-17T13:33:55.178Z,3.60
2023-01-17T13:37:02.390Z,3.95
2023-01-17T13:39:45.630Z,3.50
2023-01-17T13:44:51.225Z,3.72
2023-01-17T13:47:17.623Z,6.53
2023-01-17T13:49:45.560Z,5.13
2023-01-17T13:52:33.443Z,5.45
2023-01-17T13:55:07.102Z,3.13
2023-01-17T13:57:46.174Z,3.45
2023-01-17T14:00:47.344Z,6.72
2023-01-17T14:03:14.134Z,5.10
2023-01-17T14:05:41.288Z,5.03
2023-01-17T14:08:22.134Z,3.67
2023-01-17T14:10:51.960Z,3.33
2023-01-17T14:13:39.471Z,4.47
2023-01-17T14:16:27.765Z,3.45
2023-01-17T14:18:55.889Z,3.25
2023-01-17T14:21:27.408Z,4.78
2023-01-17T14:24:18.345Z,4.95
2023-01-17T14:29:54.978Z,4.25
2023-01-17T14:32:25.306Z,2.65
2023-01-17T14:34:53.570Z,6.70
2023-01-17T14:37:32.658Z,3.50
2023-01-17T14:40:00.743Z,3.30
2023-01-17T14:42:30.825Z,3.35
2023-01-17T14:45:08.169Z,7.75
2023-01-17T14:47:42.029Z,10.57
2023-01-17T14:50:17.838Z,4.18
2023-01-17T14:52:47.257Z,4.00
2023-01-17T14:57:56.714Z,4.72
2023-01-17T15:00:30.846Z,7.07
2023-01-17T15:02:59.568Z,10.00
2023-01-17T15:05:28.899Z,4.85
2023-01-17T15:07:57.975Z,5.07
2023-01-17T15:10:31.327Z,4.50
2023-01-17T15:13:09.525Z,4.65
2023-01-17T15:15:39.789Z,5.25
2023-01-17T15:18:20.237Z,4.93
2023-01-17T15:20:58.197Z,4.18
2023-01-17T15:26:01.546Z,5.03
2023-01-17T15:28:29.239Z,6.80
2023-01-17T15:31:17.451Z,3.58
2023-01-17T15:33:47.680Z,4.47
2023-01-17T15:39:02.404Z,5.43
2023-01-17T15:41:44.868Z,6.03
2023-01-17T15:44:49.700Z,5.97
2023-01-17T15:47:39.558Z,5.13
2023-01-17T15:50:25.637Z,6.05
2023-01-17T15:55:28.780Z,6.45
2023-01-17T15:57:55.569Z,6.65
2023-01-17T16:00:37.421Z,6.32
2023-01-17T16:03:24.553Z,6.43
2023-01-17T16:05:53.244Z,7.53
2023-01-17T16:08:26.557Z,6.25
2023-01-17T16:11:01.797Z,5.90
2023-01-17T16:16:10.803Z,6.13
2023-01-17T16:18:37.563Z,5.88
2023-01-17T16:26:18.413Z,8.70
2023-01-17T16:28:46.091Z,8.40
2023-01-17T16:31:17.073Z,7.35
2023-01-17T16:33:45.911Z,7.60
2023-01-17T16:36:15.230Z,6.53
2023-01-17T16:38:45.924Z,5.53
2023-01-17T16:41:12.931Z,8.50
2023-01-17T16:43:39.631Z,8.13
2023-01-17T16:46:06.931Z,7.47
2023-01-17T16:48:33.606Z,5.72
2023-01-17T16:51:05.739Z,18.13
2023-01-17T16:53:32.400Z,8.50
2023-01-17T16:56:06.461Z,15.30
2023-01-17T17:01:02.354Z,10.40
2023-01-17T17:03:29.841Z,14.35
2023-01-17T17:06:00.999Z,9.02
2023-01-17T17:08:29.354Z,8.43
2023-01-17T17:11:06.074Z,13.25
2023-01-17T17:13:35.780Z,7.63
2023-01-17T17:16:03.251Z,6.60
2023-01-17T17:18:29.896Z,6.20
2023-01-17T17:21:01.954Z,9.60
2023-01-17T17:23:28.536Z,8.45
2023-01-17T17:25:56.123Z,8.95
2023-01-17T17:28:22.688Z,7.68
2023-01-17T17:30:49.206Z,8.55
2023-01-17T17:33:15.779Z,6.90
2023-01-17T17:38:08.929Z,11.77
2023-01-17T17:40:35.876Z,15.32
2023-01-17T17:43:02.366Z,14.02
2023-01-17T17:45:28.862Z,12.77
2023-01-17T17:47:55.667Z,12.77
2023-01-17T17:50:24.870Z,12.25
2023-01-17T17:52:54.915Z,12.02
2023-01-17T17:55:27.429Z,14.60
2023-01-17T17:57:55.498Z,14.20
2023-01-17T18:00:23.187Z,11.82
2023-01-17T18:02:50.859Z,14.45
2023-01-17T18:05:17.381Z,13.73
2023-01-17T18:07:55.523Z,12.68
2023-01-17T18:10:22.742Z,13.98
2023-01-17T18:12:49.423Z,14.65
2023-01-17T18:15:16.245Z,12.90
2023-01-17T18:17:42.805Z,26.65
2023-01-17T18:20:09.922Z,17.45
2023-01-17T18:22:36.760Z,11.35
2023-01-17T18:25:11.925Z,10.27
2023-01-17T18:27:53.752Z,11.13
2023-01-17T18:30:20.692Z,11.20
2023-01-17T18:35:21.238Z,9.25
2023-01-17T18:37:47.712Z,12.70
2023-01-17T18:40:14.259Z,10.00
2023-01-17T18:42:40.847Z,9.50
2023-01-17T18:45:08.260Z,10.52
2023-01-17T18:47:34.854Z,8.57
2023-01-17T18:50:01.535Z,8.68
2023-01-17T18:52:28.261Z,9.20
2023-01-17T18:54:55.018Z,10.85
2023-01-17T18:57:21.637Z,7.40
2023-01-17T18:59:48.132Z,8.57
2023-01-17T19:02:14.863Z,10.63
2023-01-17T19:07:08.141Z,9.25
2023-01-17T19:09:35.041Z,8.10
2023-01-17T19:12:01.709Z,11.15
2023-01-17T19:14:28.182Z,11.27
2023-01-17T19:16:55.824Z,7.72
2023-01-17T19:19:22.410Z,8.07
2023-01-17T19:21:52.455Z,7.85
2023-01-17T19:24:18.982Z,8.90
2023-01-17T19:26:46.391Z,6.28
2023-01-17T19:29:13.219Z,6.07
2023-01-17T19:31:42.767Z,10.07
2023-01-17T19:34:10.589Z,9.55
2023-01-17T19:39:07.594Z,9.63
2023-01-17T19:41:37.314Z,12.10
2023-01-17T19:44:09.079Z,15.23
2023-01-17T19:46:36.971Z,16.15
2023-01-17T19:49:05.596Z,14.88
2023-01-17T19:51:32.356Z,11.88
2023-01-17T19:54:01.228Z,10.75
2023-01-17T19:56:28.575Z,14.80
2023-01-17T19:58:57.039Z,16.25
2023-01-17T20:01:28.381Z,16.85
2023-01-17T20:06:28.759Z,15.10
2023-01-17T20:08:55.894Z,15.40
2023-01-17T20:11:24.001Z,10.55
2023-01-17T20:13:55.835Z,12.15
2023-01-17T20:16:24.216Z,12.55
2023-01-17T20:18:51.148Z,11.98
2023-01-17T20:21:19.970Z,13.77
2023-01-17T20:23:48.188Z,11.80
2023-01-17T20:26:17.378Z,13.55
2023-01-17T20:28:45.728Z,11.88
2023-01-17T20:31:17.841Z,12.90
2023-01-17T20:33:47.411Z,12.73
2023-01-17T20:36:15.886Z,13.63
2023-01-17T20:38:43.777Z,10.50
2023-01-17T20:41:27.333Z,11.95
2023-01-17T20:43:55.930Z,12.88
2023-01-17T20:46:25.537Z,13.27
2023-01-17T20:48:57.891Z,13.13
2023-01-17T20:51:26.387Z,15.35
2023-01-17T20:53:56.053Z,19.73
2023-01-17T20:56:24.403Z,13.27
2023-01-17T21:01:24.619Z,13.05
2023-01-17T21:03:53.899Z,17.38
2023-01-17T21:06:24.588Z,16.70
2023-01-17T21:08:52.100Z,13.57
2023-01-17T21:13:48.936Z,11.70
2023-01-17T21:16:20.281Z,12.93
2023-01-17T21:18:47.931Z,15.65
2023-01-17T21:21:17.831Z,13.60
2023-01-17T21:23:45.458Z,17.85
2023-01-17T21:29:05.472Z,19.38
2023-01-17T21:31:34.700Z,17.10
2023-01-17T21:34:04.175Z,14.68
2023-01-17T21:36:33.620Z,12.10
2023-01-17T21:39:04.784Z,12.77
2023-01-17T21:44:05.219Z,27.48
2023-01-17T21:46:31.823Z,13.63
2023-01-17T21:48:58.311Z,14.73
2023-01-17T21:51:45.264Z,13.75
2023-01-17T21:54:11.950Z,15.73
2023-01-17T21:56:56.776Z,13.57
2023-01-17T21:59:23.594Z,14.30
2023-01-17T22:01:50.337Z,12.85
2023-01-17T22:04:16.877Z,13.38
2023-01-17T22:09:09.981Z,14.18
2023-01-17T22:14:08.426Z,9.75
2023-01-17T22:16:35.211Z,11.52
2023-01-17T22:19:01.677Z,13.25
2023-01-17T22:23:57.288Z,11.18
2023-01-17T22:28:53.786Z,11.80
2023-01-17T22:31:22.610Z,9.77
2023-01-17T22:38:57.982Z,14.68
2023-01-17T22:41:31.201Z,11.25
2023-01-17T22:43:59.929Z,8.57
2023-01-17T22:46:30.019Z,10.43
2023-01-17T22:48:57.268Z,9.75
2023-01-17T22:51:25.125Z,11.15
2023-01-17T22:53:54.067Z,8.68
2023-01-17T22:56:26.456Z,8.73
2023-01-17T22:58:53.277Z,7.65
2023-01-17T23:01:25.532Z,9.85
2023-01-17T23:03:55.066Z,9.10
2023-01-17T23:06:37.118Z,12.18
2023-01-17T23:09:10.954Z,11.18
2023-01-17T23:14:30.297Z,9.57
2023-01-17T23:17:17.965Z,9.93
2023-01-17T23:22:20.036Z,10.38
2023-01-17T23:24:51.208Z,9.38
2023-01-17T23:30:26.154Z,10.07
2023-01-17T23:32:59.015Z,10.85
2023-01-17T23:35:31.834Z,8.73
2023-01-17T23:38:17.035Z,8.70
2023-01-17T23:41:04.126Z,10.20
2023-01-17T23:43:31.553Z,8.52
2023-01-17T23:45:58.130Z,8.27
2023-01-17T23:50:59.947Z,9.63
2023-01-17T23:53:27.750Z,10.20
2023-01-17T23:55:57.005Z,8.88
2023-01-17T23:58:26.067Z,11.43
